Prairie Center, Illinois
Current Conditions -  °F | °C
As of 1:15 PM on Sunday 23 Nov 2014 (Local Time) from KVYS Reporting Station
Light Rain Light Rain  
Wind Chill: 52°   Ceiling: 1100
Heat Index: 52°   Visibility: 7mi
Dew Point: 48°   Wind: 12mph
Humidity: 86%   Direction: 150°SSE
Pressure: 29.51"   Gusts: 16mph
Location:  41.4349°N, 88.8687°W
Report Text: KVYS 231915Z AUTO 15010G14KT 7SM -RA OVC011 11/09 A2951 RMK AO2 T01120090
Loading
Personal Weather Stations






























Interactive Weather Map New forecast layout! Learn more

10-Day Weather Forecast

Advertisements
Track Severe Weather on mobile